Prudhoe Bay, Alaska
Current Conditions -  °F | °C
As of 4:53 AM on Saturday 01 Nov 2014 (Local Time) from PASC Reporting Station
Light Snow Light Snow  
Wind Chill: -5°   Ceiling: 1300
Heat Index: 11°   Visibility: 8mi
Dew Point:   Wind: 15mph
Humidity: 77%   Direction: 40°NE
Pressure: 29.93"   Gusts: NA
Location:  70.28°N, 148.38°W
Report Text: PASC 011253Z 04013KT 8SM -SN OVC013 M12/M15 A2993 RMK AO2 SLP137 P0000 T11171150
Loading
Personal Weather Stations






























Interactive Weather Map
Tropical Storm Tracking
New forecast layout! Learn more

10-Day Weather Forecast

Advertisements
Track Severe Weather on mobile